Time;durP1;ratioP1;P1;durP2;ratioP2;P2;SDS_P1;SDS_P2;PMS_P1;PMS_P2;Temp;Humidity;BMP_temperature;BMP_pressure;BME280_temperature;BME280_humidity;BME280_pressure;Samples;Min_cycle;Max_cycle;Signal;HPM_P1;HPM_P2
2022/05/07 00:00:44;;;;;;;7.03;6.32;;;17.10;91.90;;;;;;6369100;22;20008;-82
2022/05/07 00:03:10;;;;;;;7.93;6.85;;;17.10;91.90;;;;;;6369403;22;19998;-83
2022/05/07 00:05:37;;;;;;;8.93;6.70;;;17.10;91.90;;;;;;6367831;22;20416;-83
2022/05/07 00:08:04;;;;;;;9.68;6.80;;;17.10;91.80;;;;;;6341725;22;20079;-83
2022/05/07 00:10:30;;;;;;;7.90;6.75;;;17.10;91.80;;;;;;6368700;22;20002;-83
2022/05/07 00:12:56;;;;;;;7.82;6.38;;;17.20;91.80;;;;;;6341444;22;20302;-83
2022/05/07 00:15:22;;;;;;;8.05;6.97;;;17.20;91.80;;;;;;6367939;22;20079;-82
2022/05/07 00:18:04;;;;;;;8.23;6.20;;;17.20;91.80;;;;;;6340734;22;20030;-82
2022/05/07 00:20:31;;;;;;;8.13;6.25;;;17.20;91.80;;;;;;6368117;22;20033;-82
2022/05/07 00:22:58;;;;;;;6.57;5.57;;;17.20;91.70;;;;;;6340929;22;19999;-82
2022/05/07 00:25:24;;;;;;;8.18;5.65;;;17.20;91.70;;;;;;6368607;22;20005;-82
2022/05/07 00:27:50;;;;;;;8.55;6.18;;;17.20;91.70;;;;;;6369146;22;19994;-82
2022/05/07 00:30:15;;;;;;;6.25;5.65;;;17.20;91.70;;;;;;6368492;22;20078;-83
2022/05/07 00:32:41;;;;;;;8.63;6.03;;;17.20;91.60;;;;;;6370761;22;20077;-83
2022/05/07 00:35:10;;;;;;;9.27;5.88;;;17.20;91.60;;;;;;6370637;22;19999;-82
2022/05/07 00:37:35;;;;;;;6.72;5.97;;;17.20;91.60;;;;;;6370723;22;20026;-83
2022/05/07 00:40:01;;;;;;;7.65;5.40;;;17.20;91.60;;;;;;6371017;22;19999;-83
2022/05/07 00:42:27;;;;;;;7.63;5.85;;;17.20;91.60;;;;;;6370878;22;20036;-82
2022/05/07 00:44:53;;;;;;;6.13;5.50;;;17.20;91.60;;;;;;6370630;22;20025;-81
2022/05/07 00:47:26;;;;;;;7.60;6.15;;;17.20;91.60;;;;;;6370967;22;19994;-82
2022/05/07 00:51:33;;;;;;;8.75;6.68;;;17.20;91.50;;;;;;6341984;22;20062;-82
2022/05/07 00:52:45;;;;;;;6.72;5.20;;;17.20;91.50;;;;;;6370850;22;20010;-82
2022/05/07 00:55:13;;;;;;;6.45;5.78;;;17.20;91.60;;;;;;6369934;22;20077;-84
2022/05/07 00:57:39;;;;;;;7.70;5.75;;;17.20;91.60;;;;;;6369912;22;20417;-83
2022/05/07 01:00:06;;;;;;;5.68;5.03;;;17.20;91.60;;;;;;6369550;22;20013;-83
2022/05/07 01:02:33;;;;;;;7.55;5.43;;;17.20;91.80;;;;;;6370800;22;20015;-83
2022/05/07 01:04:58;;;;;;;5.30;4.80;;;17.20;91.70;;;;;;6370083;22;20066;-83
2022/05/07 01:07:24;;;;;;;6.57;5.50;;;17.20;91.70;;;;;;6369970;22;20443;-83
2022/05/07 01:09:50;;;;;;;6.65;5.32;;;17.20;91.60;;;;;;6369941;22;20351;-83
2022/05/07 01:12:16;;;;;;;5.70;5.03;;;17.20;91.60;;;;;;6370485;22;20005;-83
2022/05/07 01:14:42;;;;;;;7.03;5.43;;;17.10;91.40;;;;;;6370038;22;20082;-84
2022/05/07 01:17:09;;;;;;;6.25;5.45;;;17.00;91.40;;;;;;6369332;22;20026;-83
2022/05/07 01:19:35;;;;;;;6.60;5.50;;;17.00;91.60;;;;;;6370136;22;20010;-83
2022/05/07 01:22:02;;;;;;;8.90;6.85;;;16.80;91.90;;;;;;6370641;22;20419;-83
2022/05/07 01:24:28;;;;;;;8.23;6.78;;;16.80;92.10;;;;;;6369434;22;19994;-83
2022/05/07 01:26:59;;;;;;;9.05;6.70;;;16.80;92.00;;;;;;6370006;22;20003;-83
2022/05/07 01:29:26;;;;;;;7.35;6.65;;;16.90;92.00;;;;;;6341995;22;20003;-82
2022/05/07 01:31:51;;;;;;;7.13;6.30;;;17.00;92.00;;;;;;6370148;22;20077;-82
2022/05/07 01:34:17;;;;;;;7.75;6.50;;;16.90;91.80;;;;;;6370676;22;19998;-82
2022/05/07 01:36:43;;;;;;;6.70;6.10;;;17.00;91.70;;;;;;6369183;22;19999;-82
2022/05/07 01:39:09;;;;;;;5.70;5.20;;;16.90;91.80;;;;;;6370137;22;20416;-81
2022/05/07 01:41:34;;;;;;;6.07;5.40;;;16.90;91.70;;;;;;6341378;22;20085;-81
2022/05/07 01:44:00;;;;;;;6.75;5.93;;;16.90;92.00;;;;;;6370050;22;19994;-81
2022/05/07 01:49:10;;;;;;;6.65;5.25;;;16.90;91.80;;;;;;6368104;22;20087;-82
2022/05/07 01:51:35;;;;;;;6.60;5.57;;;16.90;91.80;;;;;;6370378;22;20002;-83
2022/05/07 01:54:01;;;;;;;7.80;5.60;;;16.90;91.80;;;;;;6342599;22;20368;-82
2022/05/07 01:56:27;;;;;;;8.48;6.45;;;16.90;91.80;;;;;;6369574;22;20008;-81
2022/05/07 01:58:52;;;;;;;8.82;7.43;;;17.00;91.80;;;;;;6369670;22;20038;-82
2022/05/07 02:01:19;;;;;;;19.05;13.45;;;17.00;91.90;;;;;;6341892;22;20005;-82
2022/05/07 02:03:44;;;;;;;8.60;7.70;;;16.90;91.90;;;;;;6369711;22;19998;-82
2022/05/07 02:06:10;;;;;;;13.73;12.32;;;16.70;92.70;;;;;;6370105;22;20005;-82
2022/05/07 02:08:36;;;;;;;17.23;15.25;;;16.50;92.90;;;;;;6370060;22;20029;-82
2022/05/07 02:11:01;;;;;;;21.02;18.80;;;16.30;93.40;;;;;;6370102;22;20051;-81
2022/05/07 02:13:28;;;;;;;21.75;17.55;;;16.10;93.90;;;;;;6370461;22;20319;-81
2022/05/07 02:15:54;;;;;;;17.33;13.73;;;16.10;94.10;;;;;;6342390;22;20054;-81
2022/05/07 02:18:20;;;;;;;14.07;11.98;;;16.10;94.20;;;;;;6369931;22;19998;-81
2022/05/07 02:20:46;;;;;;;17.67;14.95;;;16.10;94.30;;;;;;6370080;22;20002;-81
2022/05/07 02:23:11;;;;;;;12.45;11.05;;;16.10;94.20;;;;;;6369490;22;20002;-81
2022/05/07 02:25:37;;;;;;;19.52;17.42;;;16.10;94.30;;;;;;6341813;22;20006;-81
2022/05/07 02:28:04;;;;;;;14.70;13.27;;;16.20;94.10;;;;;;6369948;22;19999;-81
2022/05/07 02:30:29;;;;;;;21.92;19.20;;;16.10;94.20;;;;;;6370369;22;20029;-82
2022/05/07 02:32:55;;;;;;;17.17;15.48;;;16.10;94.30;;;;;;6368922;22;20002;-82
2022/05/07 02:35:22;;;;;;;22.80;18.63;;;16.10;94.50;;;;;;6342067;22;20450;-82
2022/05/07 02:37:48;;;;;;;15.20;13.48;;;16.00;94.60;;;;;;6368647;22;20415;-84
2022/05/07 02:40:14;;;;;;;21.83;18.55;;;16.00;94.80;;;;;;6341279;22;20006;-82
2022/05/07 02:42:40;;;;;;;28.35;23.52;;;16.00;94.70;;;;;;6341029;22;20317;-81
2022/05/07 02:45:07;;;;;;;25.45;21.90;;;15.90;94.90;;;;;;6369066;22;20008;-81
2022/05/07 02:47:37;;;;;;;21.90;19.27;;;15.90;95.10;;;;;;6368888;22;20008;-82
2022/05/07 02:50:04;;;;;;;18.17;16.30;;;15.80;95.20;;;;;;6369537;22;20077;-82
2022/05/07 02:52:33;;;;;;;16.98;14.88;;;15.80;95.30;;;;;;6369214;22;19999;-84
2022/05/07 02:55:00;;;;;;;13.40;12.00;;;15.90;95.40;;;;;;6340734;22;20013;-84
2022/05/07 02:57:26;;;;;;;14.32;12.85;;;16.00;95.20;;;;;;6369102;22;20028;-84
2022/05/07 02:59:51;;;;;;;14.57;12.73;;;16.20;94.90;;;;;;6342101;22;20007;-85
2022/05/07 03:02:17;;;;;;;17.52;15.65;;;16.30;94.70;;;;;;6367774;22;20051;-86
2022/05/07 03:04:43;;;;;;;12.68;11.38;;;16.20;94.20;;;;;;6342243;22;20005;-85
2022/05/07 03:07:09;;;;;;;12.73;11.43;;;16.20;94.40;;;;;;6369354;22;20032;-82
2022/05/07 03:09:35;;;;;;;14.63;11.93;;;16.30;94.30;;;;;;6369570;22;20386;-81
2022/05/07 03:12:01;;;;;;;10.73;9.65;;;16.30;94.20;;;;;;6341699;22;20003;-82
2022/05/07 03:14:26;;;;;;;15.18;12.40;;;16.30;94.20;;;;;;6369114;22;20408;-81
2022/05/07 03:16:52;;;;;;;20.05;17.48;;;16.30;94.10;;;;;;6369221;22;20089;-81
2022/05/07 03:19:18;;;;;;;17.50;15.05;;;16.20;94.00;;;;;;6342164;22;20002;-81
2022/05/07 03:21:44;;;;;;;17.50;15.68;;;16.10;94.50;;;;;;6368944;22;20018;-83
2022/05/07 03:24:10;;;;;;;17.67;15.50;;;16.00;94.70;;;;;;6369497;22;20432;-83
2022/05/07 03:26:36;;;;;;;14.65;12.18;;;15.90;94.90;;;;;;6341490;22;20060;-83
2022/05/07 03:29:02;;;;;;;10.40;9.40;;;15.90;95.00;;;;;;6369670;22;20008;-83
2022/05/07 03:31:27;;;;;;;12.43;9.77;;;16.00;95.10;;;;;;6368444;22;19998;-83
2022/05/07 03:33:53;;;;;;;11.57;9.98;;;16.10;94.90;;;;;;6369189;22;20021;-83
2022/05/07 03:36:19;;;;;;;14.90;13.15;;;16.20;94.70;;;;;;6368502;22;20028;-82
2022/05/07 03:38:45;;;;;;;10.65;9.55;;;16.30;94.50;;;;;;6369547;22;20355;-83
2022/05/07 03:41:11;;;;;;;11.77;10.35;;;16.30;94.30;;;;;;6368959;22;20077;-83
2022/05/07 03:43:37;;;;;;;9.40;8.38;;;16.40;94.20;;;;;;6368330;22;19998;-83
2022/05/07 03:46:04;;;;;;;15.65;11.88;;;16.50;94.00;;;;;;6368252;22;20001;-83
2022/05/07 03:48:30;;;;;;;11.32;10.23;;;16.50;93.90;;;;;;6369053;22;20006;-83
2022/05/07 03:50:56;;;;;;;12.50;10.68;;;16.50;93.90;;;;;;6368742;22;20495;-83
2022/05/07 03:53:31;;;;;;;17.55;14.98;;;16.40;93.90;;;;;;6368797;22;20037;-82
2022/05/07 03:56:07;;;;;;;14.43;11.35;;;16.30;94.00;;;;;;6368513;22;20012;-83
2022/05/07 03:58:34;;;;;;;11.52;10.18;;;16.20;94.60;;;;;;6341560;22;20013;-83
2022/05/07 04:01:00;;;;;;;10.43;9.30;;;16.20;94.60;;;;;;6368775;22;19998;-82
2022/05/07 04:03:28;;;;;;;11.65;10.45;;;16.20;94.50;;;;;;6369083;22;20010;-82
2022/05/07 04:05:54;;;;;;;10.85;9.73;;;16.30;94.30;;;;;;6370091;22;20001;-82
2022/05/07 04:08:21;;;;;;;11.48;10.27;;;16.30;94.10;;;;;;6371152;22;20077;-82
2022/05/07 04:10:47;;;;;;;11.13;10.02;;;16.40;94.00;;;;;;6371199;22;19998;-83
2022/05/07 04:13:15;;;;;;;19.20;15.63;;;16.50;93.90;;;;;;6342808;22;20029;-82
2022/05/07 04:15:43;;;;;;;13.05;11.45;;;16.40;93.70;;;;;;6370721;22;20076;-83
2022/05/07 04:18:09;;;;;;;13.77;11.60;;;16.40;94.00;;;;;;6370786;22;20005;-82
2022/05/07 04:20:36;;;;;;;11.90;10.00;;;16.40;93.90;;;;;;6370949;22;20034;-83
2022/05/07 04:23:02;;;;;;;14.45;12.88;;;16.40;94.10;;;;;;6370441;22;19994;-80
2022/05/07 04:25:28;;;;;;;16.63;14.90;;;16.30;94.20;;;;;;6370654;22;19994;-85
2022/05/07 04:27:54;;;;;;;15.07;12.80;;;16.20;94.30;;;;;;6343323;22;20350;-84
2022/05/07 04:30:23;;;;;;;12.73;11.43;;;16.10;94.50;;;;;;6368283;22;20002;-85
2022/05/07 04:32:49;;;;;;;16.25;12.57;;;16.10;94.60;;;;;;6371151;22;20069;-85
2022/05/07 04:35:16;;;;;;;18.27;15.45;;;16.30;94.50;;;;;;6370913;22;20490;-85
2022/05/07 04:37:42;;;;;;;19.20;17.23;;;16.10;94.40;;;;;;6370733;22;20324;-90
2022/05/07 04:40:09;;;;;;;17.92;15.70;;;16.00;94.60;;;;;;6371623;22;19998;-89
2022/05/07 04:42:36;;;;;;;27.48;24.50;;;16.00;94.50;;;;;;6371420;22;19994;-89
2022/05/07 04:45:02;;;;;;;25.85;19.65;;;15.90;94.30;;;;;;6371190;22;19999;-89
2022/05/07 04:47:28;;;;;;;24.77;20.38;;;16.00;94.50;;;;;;6371632;22;19998;-89
2022/05/07 04:49:54;;;;;;;18.38;16.33;;;15.80;94.70;;;;;;6309144;22;20062;-90
2022/05/07 04:52:19;;;;;;;27.85;23.02;;;15.90;94.70;;;;;;6280968;22;20014;-88
2022/05/07 04:54:45;;;;;;;16.80;15.05;;;15.90;94.40;;;;;;6309056;22;20000;-90
2022/05/07 04:57:11;;;;;;;16.65;14.85;;;16.00;94.50;;;;;;6309134;22;20000;-88
2022/05/07 04:59:36;;;;;;;22.45;20.02;;;16.10;94.30;;;;;;6281460;22;20015;-89
2022/05/07 05:02:02;;;;;;;21.80;19.50;;;16.00;94.10;;;;;;6308847;22;20003;-83
2022/05/07 05:04:28;;;;;;;23.90;21.40;;;16.00;94.20;;;;;;6280886;22;20325;-86
2022/05/07 05:06:54;;;;;;;35.58;28.50;;;15.90;94.40;;;;;;6307381;22;20021;-87
2022/05/07 05:09:20;;;;;;;26.75;22.08;;;15.70;94.40;;;;;;6280938;22;20084;-87
2022/05/07 05:11:46;;;;;;;28.05;22.98;;;15.60;94.70;;;;;;6307884;22;20003;-85
2022/05/07 05:16:56;;;;;;;23.98;21.40;;;15.50;94.70;;;;;;6307302;22;20018;-88
2022/05/07 05:19:21;;;;;;;30.70;25.33;;;15.70;94.90;;;;;;6308200;22;20372;-88
2022/05/07 05:21:47;;;;;;;26.98;21.98;;;15.70;94.80;;;;;;6307011;22;19995;-88
2022/05/07 05:24:13;;;;;;;27.08;22.45;;;15.80;94.60;;;;;;6307970;22;20426;-88
2022/05/07 05:26:38;;;;;;;20.85;18.08;;;15.80;94.60;;;;;;6308183;22;20002;-87
2022/05/07 05:29:04;;;;;;;34.13;27.80;;;15.80;94.60;;;;;;6307626;22;20417;-87
2022/05/07 05:31:30;;;;;;;23.15;19.65;;;15.80;94.50;;;;;;6308012;22;19999;-87
2022/05/07 05:33:59;;;;;;;26.83;22.50;;;15.90;94.60;;;;;;6307712;22;19999;-87
2022/05/07 05:36:26;;;;;;;29.20;24.20;;;15.80;94.60;;;;;;6308030;22;20069;-86
2022/05/07 05:38:53;;;;;;;36.33;31.05;;;15.90;94.60;;;;;;6307524;22;20009;-87
2022/05/07 05:41:19;;;;;;;27.05;24.17;;;15.90;94.50;;;;;;6307517;22;20066;-80
2022/05/07 05:43:46;;;;;;;46.35;35.08;;;15.90;94.60;;;;;;6279868;22;20006;-80
2022/05/07 05:46:11;;;;;;;24.38;21.70;;;15.60;94.70;;;;;;6307082;22;20006;-80
2022/05/07 05:48:37;;;;;;;31.83;26.45;;;15.70;95.10;;;;;;6320252;22;20394;-81
2022/05/07 05:51:04;;;;;;;23.20;20.58;;;15.80;94.90;;;;;;6338246;22;20003;-80
2022/05/07 05:53:31;;;;;;;23.23;20.45;;;15.80;95.00;;;;;;6336783;22;20040;-80
2022/05/07 05:55:58;;;;;;;27.50;23.92;;;15.90;95.00;;;;;;6309636;22;20015;-79
2022/05/07 05:58:24;;;;;;;29.67;25.33;;;15.80;94.90;;;;;;6311305;22;20010;-80
2022/05/07 06:00:52;;;;;;;33.10;29.02;;;15.90;94.80;;;;;;6338411;22;20003;-86
2022/05/07 06:03:18;;;;;;;32.88;27.20;;;15.90;94.50;;;;;;6310452;22;20301;-82
2022/05/07 06:05:44;;;;;;;29.73;25.15;;;15.80;95.00;;;;;;6309052;22;19999;-84
2022/05/07 06:08:12;;;;;;;50.15;40.15;;;15.80;95.20;;;;;;6310865;22;20094;-83
2022/05/07 06:10:37;;;;;;;48.85;39.53;;;15.60;95.00;;;;;;6338120;22;20025;-83
2022/05/07 06:13:03;;;;;;;46.53;37.72;;;15.50;95.30;;;;;;6338224;22;20082;-85
2022/05/07 06:15:29;;;;;;;26.80;23.80;;;15.40;95.90;;;;;;6337693;22;20038;-83
2022/05/07 06:17:54;;;;;;;37.33;32.38;;;15.50;96.20;;;;;;6338850;22;20003;-84
2022/05/07 06:20:20;;;;;;;25.73;22.67;;;15.60;96.00;;;;;;6336922;22;20451;-84
2022/05/07 06:22:46;;;;;;;47.42;39.92;;;15.70;95.90;;;;;;6338388;22;19995;-85
2022/05/07 06:27:55;;;;;;;26.25;22.92;;;15.40;96.30;;;;;;6338472;22;20022;-85
2022/05/07 06:30:22;;;;;;;48.80;39.22;;;15.60;96.80;;;;;;6338431;22;20007;-87
2022/05/07 06:32:47;;;;;;;40.92;32.95;;;15.60;96.20;;;;;;6338572;22;19999;-84
2022/05/07 06:35:13;;;;;;;46.97;39.65;;;15.40;96.60;;;;;;6337986;22;20006;-84
2022/05/07 06:37:39;;;;;;;38.80;32.42;;;15.40;96.80;;;;;;6338204;22;20010;-84
2022/05/07 06:40:06;;;;;;;49.35;41.25;;;15.40;96.90;;;;;;6337911;22;20002;-88
2022/05/07 06:42:35;;;;;;;46.83;36.67;;;15.30;96.80;;;;;;6338594;22;20100;-84
2022/05/07 06:45:02;;;;;;;36.92;29.88;;;15.40;97.00;;;;;;6337438;22;20049;-85
2022/05/07 06:47:28;;;;;;;36.47;31.30;;;15.60;97.10;;;;;;6335243;22;20002;-85
2022/05/07 06:49:54;;;;;;;45.67;39.08;;;15.50;96.70;;;;;;6337251;22;20014;-85
2022/05/07 06:52:20;;;;;;;32.92;29.13;;;15.40;97.10;;;;;;6338968;22;20081;-85
2022/05/07 06:54:46;;;;;;;27.90;24.35;;;15.50;97.30;;;;;;6339000;22;20390;-84
2022/05/07 06:57:11;;;;;;;42.25;34.92;;;15.60;97.30;;;;;;6338723;22;20002;-84
2022/05/07 06:59:37;;;;;;;29.95;22.90;;;15.60;96.60;;;;;;6338260;22;20003;-84
2022/05/07 07:02:03;;;;;;;27.17;23.60;;;15.80;96.80;;;;;;6338161;22;19999;-84
2022/05/07 07:04:29;;;;;;;39.60;34.10;;;15.80;96.50;;;;;;6339230;22;20006;-84
2022/05/07 07:06:55;;;;;;;35.65;31.17;;;15.90;96.10;;;;;;6338761;22;20338;-84
2022/05/07 07:09:21;;;;;;;30.65;27.33;;;15.90;96.20;;;;;;6311549;22;20010;-83
2022/05/07 07:11:47;;;;;;;19.75;17.75;;;15.80;96.40;;;;;;6338618;22;20009;-84
2022/05/07 07:14:13;;;;;;;35.00;30.02;;;15.90;96.50;;;;;;6338800;22;20079;-84
2022/05/07 07:16:38;;;;;;;29.95;25.30;;;15.90;96.10;;;;;;6339006;22;20074;-85
2022/05/07 07:19:04;;;;;;;29.45;24.58;;;15.90;96.00;;;;;;6339008;22;20364;-84
2022/05/07 07:21:30;;;;;;;30.33;24.80;;;16.00;95.70;;;;;;6338478;22;20287;-84
2022/05/07 07:23:57;;;;;;;34.63;28.75;;;16.10;95.60;;;;;;6338497;22;19999;-84
2022/05/07 07:26:23;;;;;;;31.52;24.98;;;16.10;95.30;;;;;;6338367;22;20002;-83
2022/05/07 07:28:49;;;;;;;27.17;22.92;;;16.10;95.70;;;;;;6338343;22;19999;-84
2022/05/07 07:31:16;;;;;;;25.85;21.48;;;16.10;95.90;;;;;;6338340;22;20067;-84
2022/05/07 07:33:42;;;;;;;31.00;25.10;;;16.20;95.70;;;;;;6338577;22;20003;-85
2022/05/07 07:36:14;;;;;;;26.67;22.27;;;16.10;95.60;;;;;;6338686;22;19999;-85
2022/05/07 07:38:39;;;;;;;22.33;18.08;;;16.20;95.70;;;;;;6339279;22;20003;-85
2022/05/07 07:41:06;;;;;;;24.13;21.48;;;16.20;95.60;;;;;;6338523;22;20346;-84
2022/05/07 07:43:32;;;;;;;21.20;18.95;;;16.30;95.40;;;;;;6338726;22;19998;-83
2022/05/07 07:48:42;;;;;;;27.70;22.98;;;16.30;94.90;;;;;;6339050;22;20041;-84
2022/05/07 07:51:08;;;;;;;15.70;13.05;;;16.10;94.50;;;;;;6338230;22;20417;-85
2022/05/07 07:53:36;;;;;;;14.35;12.85;;;16.30;95.20;;;;;;6339309;22;20005;-83
2022/05/07 07:56:03;;;;;;;19.67;16.17;;;16.50;95.00;;;;;;6339018;22;20003;-84
2022/05/07 07:58:29;;;;;;;13.15;11.73;;;16.40;94.30;;;;;;6338577;22;20426;-85
2022/05/07 08:00:54;;;;;;;13.15;10.65;;;16.50;94.60;;;;;;6337792;22;20009;-85
2022/05/07 08:03:21;;;;;;;19.45;11.15;;;16.70;94.70;;;;;;6310427;22;20417;-85
2022/05/07 08:05:49;;;;;;;9.93;8.93;;;16.90;94.60;;;;;;6337996;22;19999;-85
2022/05/07 08:13:47;;;;;;;14.40;12.20;;;17.00;93.80;;;;;;6337836;22;20017;-84
2022/05/07 08:16:14;;;;;;;8.60;7.57;;;17.10;93.50;;;;;;6338130;22;20042;-85
2022/05/07 08:18:41;;;;;;;8.63;7.55;;;17.20;93.60;;;;;;6338766;22;20030;-85
2022/05/07 08:21:08;;;;;;;8.38;7.15;;;17.30;93.60;;;;;;6309516;22;20006;-80
2022/05/07 08:23:36;;;;;;;16.00;11.27;;;17.30;93.10;;;;;;6309191;22;20334;-81
2022/05/07 08:26:04;;;;;;;13.50;9.80;;;17.20;92.90;;;;;;6337685;22;19995;-81
2022/05/07 08:28:34;;;;;;;8.95;7.40;;;17.10;93.00;;;;;;6338256;22;20329;-80
2022/05/07 08:31:00;;;;;;;10.55;8.27;;;17.00;92.90;;;;;;6337478;22;20505;-80
2022/05/07 08:33:27;;;;;;;9.50;8.35;;;17.00;93.00;;;;;;6338038;22;20003;-81
2022/05/07 08:35:53;;;;;;;7.00;5.40;;;17.10;93.40;;;;;;6338345;22;20003;-81
2022/05/07 08:38:19;;;;;;;7.65;6.50;;;17.20;93.40;;;;;;6310996;22;20336;-81
2022/05/07 08:40:45;;;;;;;11.57;7.53;;;17.30;92.90;;;;;;6338021;22;20404;-80
2022/05/07 08:43:11;;;;;;;6.60;5.88;;;17.20;92.90;;;;;;6338348;22;20173;-80
2022/05/07 08:45:41;;;;;;;6.03;5.43;;;17.30;93.10;;;;;;6338535;22;19999;-80
2022/05/07 08:48:08;;;;;;;7.10;5.97;;;17.40;92.80;;;;;;6338586;22;20413;-81
2022/05/07 08:50:34;;;;;;;8.57;6.95;;;17.40;92.60;;;;;;6338378;22;20003;-80
2022/05/07 08:53:00;;;;;;;11.27;8.52;;;17.30;92.40;;;;;;6339374;22;20402;-81
2022/05/07 08:55:26;;;;;;;7.53;6.32;;;17.20;92.40;;;;;;6312142;22;20003;-80
2022/05/07 08:57:53;;;;;;;8.88;6.70;;;17.20;92.60;;;;;;6340020;22;20055;-80
2022/05/07 09:00:21;;;;;;;6.05;5.35;;;17.40;92.80;;;;;;6340404;22;20407;-81
2022/05/07 09:02:55;;;;;;;8.50;6.57;;;17.50;92.50;;;;;;6339621;22;19999;-81
2022/05/07 09:05:22;;;;;;;9.38;8.05;;;17.30;92.50;;;;;;6340047;22;19995;-80
2022/05/07 09:07:57;;;;;;;11.73;10.40;;;17.30;92.50;;;;;;6340105;22;20421;-81
2022/05/07 09:10:34;;;;;;;12.18;10.15;;;17.20;92.50;;;;;;6339961;22;19999;-81
2022/05/07 09:13:15;;;;;;;15.35;10.43;;;17.30;92.80;;;;;;6339983;22;20030;-81
2022/05/07 09:15:56;;;;;;;8.35;7.45;;;17.20;93.00;;;;;;6340109;22;19999;-81
2022/05/07 09:18:23;;;;;;;6.82;6.05;;;17.40;92.60;;;;;;6340155;22;20078;-81
2022/05/07 09:21:23;;;;;;;6.80;5.57;;;17.50;92.70;;;;;;6312016;22;20003;-80
2022/05/07 09:23:58;;;;;;;;;;;17.70;92.50;;;;;;6340467;22;19999;-80
2022/05/07 09:26:26;;;;;;;8.05;6.80;;;17.80;92.30;;;;;;6339759;22;19899;-80
2022/05/07 09:28:52;;;;;;;8.60;7.70;;;17.90;91.80;;;;;;6340110;22;19999;-81
2022/05/07 09:31:23;;;;;;;12.07;10.88;;;17.80;91.40;;;;;;6309298;22;20087;-86
2022/05/07 09:33:49;;;;;;;14.45;12.93;;;17.80;91.20;;;;;;6337434;22;20003;-81
2022/05/07 09:36:14;;;;;;;17.92;13.20;;;17.70;91.90;;;;;;6337886;22;20003;-81
2022/05/07 09:38:40;;;;;;;11.90;10.80;;;17.60;91.50;;;;;;6339325;22;20056;-85
2022/05/07 09:41:06;;;;;;;9.52;8.40;;;17.70;91.90;;;;;;6338724;22;20007;-85
2022/05/07 09:43:33;;;;;;;7.47;6.53;;;17.70;91.80;;;;;;6338625;22;20033;-85
2022/05/07 09:45:58;;;;;;;10.18;8.10;;;17.90;91.80;;;;;;6339198;22;19995;-84
2022/05/07 09:48:24;;;;;;;13.75;12.10;;;18.10;91.70;;;;;;6338811;22;20010;-85
2022/05/07 09:50:50;;;;;;;8.13;7.32;;;18.00;90.70;;;;;;6339259;22;19999;-85
2022/05/07 09:58:53;;;;;;;7.07;6.38;;;18.20;90.60;;;;;;6338846;22;20021;-85
2022/05/07 10:01:28;;;;;;;9.05;7.72;;;18.50;90.70;;;;;;6339424;22;20003;-86
2022/05/07 10:04:36;;;;;;;10.07;8.32;;;18.60;90.70;;;;;;6338288;22;20070;-86
2022/05/07 10:07:13;;;;;;;13.98;12.55;;;18.70;90.10;;;;;;6310508;22;20002;-86
2022/05/07 10:10:07;;;;;;;9.25;8.25;;;18.50;89.00;;;;;;6338140;22;20007;-86
2022/05/07 10:12:34;;;;;;;7.22;6.47;;;18.30;89.90;;;;;;6338493;22;20006;-86
2022/05/07 10:15:08;;;;;;;9.65;8.48;;;18.50;90.20;;;;;;6337192;22;20782;-88
2022/05/07 10:17:35;;;;;;;9.52;7.82;;;18.70;90.20;;;;;;6338717;22;20022;-85
2022/05/07 10:20:09;;;;;;;12.32;10.30;;;18.60;88.40;;;;;;6338672;22;20078;-84
2022/05/07 10:22:36;;;;;;;6.20;5.53;;;18.40;88.30;;;;;;6338611;22;20018;-84
2022/05/07 10:25:03;;;;;;;12.77;10.95;;;18.60;89.50;;;;;;6337126;22;19995;-82
2022/05/07 10:27:42;;;;;;;7.30;6.47;;;18.40;87.60;;;;;;6337570;22;20006;-83
2022/05/07 10:30:13;;;;;;;13.45;10.25;;;18.50;88.80;;;;;;6337640;22;20006;-84
2022/05/07 10:33:04;;;;;;;10.80;9.77;;;18.50;87.60;;;;;;6337839;22;20103;-84
2022/05/07 10:35:49;;;;;;;13.05;10.68;;;18.50;87.20;;;;;;6311067;22;20086;-84
2022/05/07 10:38:16;;;;;;;8.35;7.50;;;18.20;88.50;;;;;;6338360;22;20013;-84
2022/05/07 10:40:57;;;;;;;9.48;7.38;;;18.10;89.80;;;;;;6338624;22;20554;-83
2022/05/07 10:43:30;;;;;;;16.40;11.27;;;18.10;88.40;;;;;;6338443;22;20003;-84
2022/05/07 10:46:12;;;;;;;11.52;10.32;;;17.90;88.90;;;;;;6338436;22;20013;-84
2022/05/07 10:48:59;;;;;;;13.55;10.23;;;18.00;89.80;;;;;;6337981;22;20011;-84
2022/05/07 10:51:35;;;;;;;13.30;12.00;;;18.10;90.30;;;;;;6336880;22;20010;-83
2022/05/07 10:54:03;;;;;;;12.88;11.27;;;18.20;89.40;;;;;;6337850;22;20003;-84
2022/05/07 10:56:31;;;;;;;8.88;7.97;;;18.20;90.10;;;;;;6337213;22;20345;-84
2022/05/07 10:58:57;;;;;;;13.02;9.30;;;18.50;90.20;;;;;;6337293;22;20013;-84
2022/05/07 11:01:25;;;;;;;9.75;8.75;;;18.60;89.10;;;;;;6337830;22;19999;-84
2022/05/07 11:04:07;;;;;;;15.20;11.88;;;18.70;88.50;;;;;;6338288;22;19995;-86
2022/05/07 11:06:36;;;;;;;9.05;8.15;;;18.80;87.80;;;;;;6338395;22;19994;-85
2022/05/07 11:09:02;;;;;;;13.13;11.23;;;18.90;87.40;;;;;;6338665;22;20077;-87
2022/05/07 11:11:27;;;;;;;8.52;7.63;;;18.80;85.20;;;;;;6339260;22;20034;-86
2022/05/07 11:13:55;;;;;;;11.98;10.00;;;18.90;86.90;;;;;;6339204;22;20006;-86
2022/05/07 11:16:22;;;;;;;6.18;5.57;;;19.20;84.70;;;;;;6338678;22;19999;-87
2022/05/07 11:18:53;;;;;;;8.50;7.70;;;19.30;85.40;;;;;;6339124;22;20013;-86
2022/05/07 11:21:24;;;;;;;7.97;6.22;;;19.40;83.60;;;;;;6338244;22;20375;-86
2022/05/07 11:23:54;;;;;;;9.00;8.20;;;19.40;83.30;;;;;;6339568;22;20068;-87
2022/05/07 11:26:20;;;;;;;8.02;5.28;;;19.30;82.10;;;;;;6311182;22;19995;-87
2022/05/07 11:28:46;;;;;;;6.25;4.93;;;19.50;83.20;;;;;;6339365;22;20002;-87
2022/05/07 11:31:33;;;;;;;5.35;4.85;;;19.90;83.70;;;;;;6339140;22;20069;-86
2022/05/07 11:34:12;;;;;;;11.50;9.40;;;20.10;83.70;;;;;;6339065;22;20006;-87
2022/05/07 11:36:38;;;;;;;7.57;6.40;;;19.60;82.60;;;;;;6339181;22;20068;-86
2022/05/07 11:39:07;;;;;;;6.55;5.90;;;19.80;83.40;;;;;;6311240;22;20313;-87
2022/05/07 11:41:34;;;;;;;8.38;5.30;;;19.90;82.60;;;;;;6338421;22;19998;-87
2022/05/07 11:46:57;;;;;;;4.75;4.15;;;20.30;81.00;;;;;;6339374;22;20068;-88
2022/05/07 11:49:35;;;;;;;7.22;4.22;;;20.70;81.40;;;;;;6338690;22;20014;-87
2022/05/07 11:52:10;;;;;;;5.60;3.67;;;21.20;80.70;;;;;;6339876;22;20025;-86
2022/05/07 11:54:36;;;;;;;7.40;5.90;;;21.40;79.50;;;;;;6311107;22;20400;-86
2022/05/07 11:57:03;;;;;;;5.03;4.30;;;21.50;75.40;;;;;;6338846;22;20455;-87
2022/05/07 11:59:29;;;;;;;5.15;3.95;;;21.70;77.20;;;;;;6339438;22;19999;-87
2022/05/07 12:01:55;;;;;;;4.10;3.70;;;21.80;77.00;;;;;;6339274;22;20032;-87
2022/05/07 12:04:31;;;;;;;3.50;3.20;;;21.80;77.20;;;;;;6339325;22;20325;-87
2022/05/07 12:06:57;;;;;;;3.22;2.90;;;21.80;76.00;;;;;;6339056;22;20401;-87
2022/05/07 12:09:27;;;;;;;4.00;3.60;;;21.80;76.10;;;;;;6338623;22;20052;-87
2022/05/07 12:11:53;;;;;;;3.03;2.72;;;21.60;74.70;;;;;;6338682;22;20507;-87
2022/05/07 12:14:19;;;;;;;3.35;2.67;;;21.50;75.70;;;;;;6311359;22;19991;-86
2022/05/07 12:19:34;;;;;;;2.72;2.42;;;21.60;73.80;;;;;;6338864;22;20048;-86
2022/05/07 12:30:13;;;;;;;4.95;4.30;;;21.40;75.70;;;;;;6340622;22;20475;-87
2022/05/07 12:32:42;;;;;;;2.60;2.38;;;21.30;75.10;;;;;;6340972;22;20006;-87
2022/05/07 12:35:08;;;;;;;3.47;2.72;;;21.30;75.80;;;;;;6340801;22;20003;-87
2022/05/07 12:37:34;;;;;;;3.38;2.40;;;21.30;76.10;;;;;;6340732;22;20010;-87
2022/05/07 12:39:59;;;;;;;2.83;2.53;;;21.20;75.30;;;;;;6340756;22;20010;-87
2022/05/07 12:42:25;;;;;;;4.50;3.05;;;21.20;75.80;;;;;;6340072;22;20002;-86
2022/05/07 12:44:51;;;;;;;3.35;2.65;;;21.30;75.60;;;;;;6340317;22;19999;-85
2022/05/07 12:47:18;;;;;;;2.80;2.42;;;21.30;75.70;;;;;;6340017;22;20005;-87
2022/05/07 12:49:44;;;;;;;2.70;2.20;;;21.30;75.80;;;;;;6339809;22;20022;-82
2022/05/07 12:52:10;;;;;;;3.03;2.65;;;21.30;75.40;;;;;;6340402;22;20002;-82
2022/05/07 12:54:36;;;;;;;2.35;2.10;;;21.20;76.00;;;;;;6339970;22;20006;-88
2022/05/07 12:57:03;;;;;;;4.97;2.60;;;21.20;76.40;;;;;;6339684;22;20010;-80
2022/05/07 12:59:30;;;;;;;2.78;2.10;;;21.10;76.30;;;;;;6339728;22;20062;-86
2022/05/07 13:01:57;;;;;;;1.83;1.73;;;21.10;75.40;;;;;;6339166;22;20010;-87
2022/05/07 13:04:24;;;;;;;2.88;1.70;;;21.10;74.90;;;;;;6340034;22;20424;-87
2022/05/07 13:06:51;;;;;;;3.00;2.10;;;21.10;75.40;;;;;;6338952;22;20010;-86
2022/05/07 13:09:17;;;;;;;1.70;1.52;;;21.00;74.30;;;;;;6312001;22;19998;-87
2022/05/07 13:11:43;;;;;;;3.58;2.22;;;21.20;74.60;;;;;;6338930;22;20060;-86
2022/05/07 13:14:09;;;;;;;2.00;1.77;;;21.10;71.70;;;;;;6340813;22;20462;-87